Time;durP1;ratioP1;P1;durP2;ratioP2;P2;SDS_P1;SDS_P2;PMS_P1;PMS_P2;Temp;Humidity;BMP_temperature;BMP_pressure;BME280_temperature;BME280_humidity;BME280_pressure;Samples;Min_cycle;Max_cycle;Signal;HPM_P1;HPM_P2
2022/05/12 00:00:24;;;;;;;5.90;2.97;;;;;;;19.38;47.54;101229.16;5138081;27;20545;-60
2022/05/12 00:02:51;;;;;;;5.47;3.08;;;;;;;19.32;47.27;101228.75;5137077;27;20043;-60
2022/05/12 00:05:20;;;;;;;6.90;2.47;;;;;;;19.27;47.21;101235.66;5136003;27;20035;-60
2022/05/12 00:07:47;;;;;;;7.28;2.33;;;;;;;19.24;47.50;101245.00;5137525;27;20047;-60
2022/05/12 00:10:16;;;;;;;7.35;2.88;;;;;;;19.22;47.26;101244.28;5137657;27;20126;-61
2022/05/12 00:12:44;;;;;;;6.93;2.17;;;;;;;19.21;47.68;101244.44;5136524;27;20042;-60
2022/05/12 00:15:14;;;;;;;10.18;3.05;;;;;;;19.17;47.30;101246.63;5137551;27;20496;-59
2022/05/12 00:17:41;;;;;;;6.70;2.53;;;;;;;19.15;47.81;101243.22;5117104;27;20053;-60
2022/05/12 00:20:08;;;;;;;9.02;2.50;;;;;;;19.12;47.73;101251.69;5123378;27;20493;-60
2022/05/12 00:22:35;;;;;;;5.03;2.22;;;;;;;19.09;47.21;101251.13;5137208;27;20043;-60
2022/05/12 00:25:03;;;;;;;10.38;2.22;;;;;;;19.04;47.54;101265.22;5133119;27;20481;-61
2022/05/12 00:27:30;;;;;;;7.68;2.10;;;;;;;18.99;47.70;101267.53;5137112;27;20031;-60
2022/05/12 00:29:56;;;;;;;5.70;2.10;;;;;;;18.94;47.40;101262.56;5136503;27;20047;-60
2022/05/12 00:32:24;;;;;;;9.15;1.85;;;;;;;18.84;47.46;101277.22;5137003;27;20414;-60
2022/05/12 00:34:50;;;;;;;7.13;2.13;;;;;;;18.77;47.25;101270.69;5121138;27;20047;-60
2022/05/12 00:37:17;;;;;;;5.35;1.73;;;;;;;18.72;47.54;101282.03;5116733;28;20044;-59
2022/05/12 00:39:43;;;;;;;9.05;2.20;;;;;;;18.64;47.35;101266.44;5132016;27;20031;-59
2022/05/12 00:42:10;;;;;;;3.83;1.75;;;;;;;18.61;47.37;101279.47;5135510;27;20043;-59
2022/05/12 00:44:36;;;;;;;6.85;1.95;;;;;;;18.58;47.61;101286.06;5116641;28;20381;-60
2022/05/12 00:47:03;;;;;;;6.20;1.60;;;;;;;18.57;47.72;101291.63;5116469;28;20092;-59
2022/05/12 00:49:34;;;;;;;6.93;2.30;;;;;;;18.55;47.44;101285.47;5125315;27;20481;-60
2022/05/12 00:52:09;;;;;;;4.60;1.75;;;;;;;18.50;47.37;101294.09;5136990;27;20040;-59
2022/05/12 00:54:45;;;;;;;4.00;1.70;;;;;;;18.47;47.32;101298.97;5136041;27;20047;-59
2022/05/12 00:57:16;;;;;;;8.75;2.10;;;;;;;18.45;47.28;101295.53;5117511;27;20070;-60
2022/05/12 00:59:43;;;;;;;7.13;2.10;;;;;;;18.40;47.24;101291.41;5135898;27;20047;-60
2022/05/12 01:02:14;;;;;;;4.22;1.98;;;;;;;18.35;47.33;101292.84;5121451;27;20493;-60
2022/05/12 01:04:44;;;;;;;6.00;2.03;;;;;;;18.30;47.42;101298.75;5116000;28;20070;-59
2022/05/12 01:07:11;;;;;;;7.20;1.90;;;;;;;18.25;47.62;101302.91;5133736;27;20039;-59
2022/05/12 01:09:37;;;;;;;3.88;2.30;;;;;;;18.24;47.24;101299.34;5131551;27;20047;-59
2022/05/12 01:12:05;;;;;;;3.92;2.25;;;;;;;18.23;47.31;101303.06;5116325;27;20048;-59
2022/05/12 01:14:32;;;;;;;7.72;2.22;;;;;;;18.23;47.51;101299.47;5123793;27;20131;-60
2022/05/12 01:17:00;;;;;;;5.80;2.30;;;;;;;18.19;47.67;101312.50;5136611;27;20039;-59
2022/05/12 01:19:33;;;;;;;6.97;2.20;;;;;;;18.16;47.42;101315.53;5135655;27;20043;-60
2022/05/12 01:22:01;;;;;;;6.90;2.83;;;;;;;18.18;47.28;101315.38;5120245;27;20043;-59
2022/05/12 01:24:35;;;;;;;4.85;2.05;;;;;;;18.13;47.37;101323.97;5124457;27;20047;-60
2022/05/12 01:27:19;;;;;;;5.03;2.20;;;;;;;18.07;47.54;101321.84;5135416;27;20441;-59
2022/05/12 01:29:52;;;;;;;5.30;2.00;;;;;;;18.02;47.23;101326.84;5133004;27;20488;-60
2022/05/12 01:32:21;;;;;;;4.50;2.03;;;;;;;17.99;47.71;101332.56;5115787;28;20483;-60
2022/05/12 01:34:47;;;;;;;5.35;2.10;;;;;;;17.98;47.63;101330.88;5128487;27;20047;-59
2022/05/12 01:37:14;;;;;;;6.68;2.45;;;;;;;17.97;47.68;101340.88;5127005;27;20046;-60
2022/05/12 01:39:41;;;;;;;4.82;2.38;;;;;;;17.98;47.78;101342.59;5136081;27;20034;-60
2022/05/12 01:42:10;;;;;;;4.82;2.30;;;;;;;18.00;47.54;101346.03;5122349;27;20046;-60
2022/05/12 01:44:37;;;;;;;4.50;2.35;;;;;;;18.04;47.84;101343.88;5136120;27;20058;-59
2022/05/12 01:47:05;;;;;;;3.28;1.80;;;;;;;18.07;47.79;101343.56;5135190;27;20043;-60
2022/05/12 01:49:32;;;;;;;4.32;2.28;;;;;;;18.10;47.92;101352.31;5125788;27;20138;-60
2022/05/12 01:52:01;;;;;;;6.43;2.33;;;;;;;18.13;47.67;101358.44;5115308;28;20069;-61
2022/05/12 01:54:28;;;;;;;4.43;2.20;;;;;;;18.13;47.52;101359.31;5123074;27;20382;-60
2022/05/12 01:56:56;;;;;;;5.88;2.60;;;;;;;18.10;47.36;101365.03;5122396;27;20035;-59
2022/05/12 01:59:23;;;;;;;7.22;2.80;;;;;;;18.04;47.35;101362.91;5116180;27;20495;-60
2022/05/12 02:01:50;;;;;;;6.90;3.15;;;;;;;17.99;47.33;101360.63;5134942;27;20047;-60
2022/05/12 02:04:17;;;;;;;7.50;3.08;;;;;;;17.95;47.40;101366.47;5119802;27;20043;-60
2022/05/12 02:06:44;;;;;;;8.90;3.38;;;;;;;17.92;47.70;101367.63;5117122;27;20044;-60
2022/05/12 02:09:12;;;;;;;8.77;3.72;;;;;;;17.92;47.66;101366.78;5133662;27;20377;-60
2022/05/12 02:11:39;;;;;;;6.05;3.10;;;;;;;17.90;47.59;101371.50;5133139;27;20035;-60
2022/05/12 02:14:06;;;;;;;4.28;2.42;;;;;;;17.87;47.65;101377.22;5134542;27;20043;-59
2022/05/12 02:16:34;;;;;;;6.32;3.05;;;;;;;17.84;47.68;101380.22;5134506;27;20042;-59
2022/05/12 02:19:05;;;;;;;6.45;3.10;;;;;;;17.77;47.73;101393.47;5135290;27;20554;-60
2022/05/12 02:21:32;;;;;;;6.57;2.40;;;;;;;17.73;48.03;101392.91;5115784;27;20040;-60
2022/05/12 02:23:59;;;;;;;4.75;2.50;;;;;;;17.70;47.82;101398.63;5135000;27;20045;-60
2022/05/12 02:26:27;;;;;;;7.25;2.97;;;;;;;17.70;47.89;101401.34;5134510;27;20077;-60
2022/05/12 02:28:54;;;;;;;8.00;2.67;;;;;;;17.70;47.98;101395.91;5132214;27;20569;-59
2022/05/12 02:31:21;;;;;;;7.78;3.10;;;;;;;17.69;47.99;101399.63;5133974;27;20036;-59
2022/05/12 02:33:48;;;;;;;5.18;2.75;;;;;;;17.68;48.18;101400.63;5132684;27;20142;-59
2022/05/12 02:36:15;;;;;;;7.40;2.75;;;;;;;17.66;47.81;101405.34;5119568;27;20138;-60
2022/05/12 02:38:42;;;;;;;5.13;2.38;;;;;;;17.61;47.88;101404.88;5133010;27;20039;-58
2022/05/12 02:41:08;;;;;;;5.97;3.10;;;;;;;17.55;47.78;101410.88;5133445;27;20043;-59
2022/05/12 02:43:35;;;;;;;4.93;2.80;;;;;;;17.51;47.85;101416.72;5113888;27;20065;-59
2022/05/12 02:46:05;;;;;;;6.22;2.50;;;;;;;17.47;47.89;101418.84;5133684;27;20047;-60
2022/05/12 02:48:41;;;;;;;8.35;2.50;;;;;;;17.43;47.94;101420.13;5134657;27;20092;-58
2022/05/12 02:51:08;;;;;;;4.18;2.30;;;;;;;17.40;48.09;101420.41;5114557;28;20405;-59
2022/05/12 02:53:36;;;;;;;6.57;2.40;;;;;;;17.36;48.24;101427.13;5113982;28;20048;-60
2022/05/12 02:56:04;;;;;;;6.05;2.28;;;;;;;17.32;47.98;101425.69;5116755;27;20051;-59
2022/05/12 02:58:31;;;;;;;5.70;2.35;;;;;;;17.29;48.44;101432.25;5134887;27;20043;-59
2022/05/12 03:00:58;;;;;;;5.05;2.08;;;;;;;17.25;48.37;101441.66;5128557;27;20562;-59
2022/05/12 03:03:25;;;;;;;5.03;2.25;;;;;;;17.20;48.34;101432.22;5113812;28;20042;-60
2022/05/12 03:05:53;;;;;;;7.20;2.08;;;;;;;17.18;48.41;101434.22;5113940;28;20043;-59
2022/05/12 03:08:21;;;;;;;4.10;2.03;;;;;;;17.14;48.57;101437.19;5118716;27;20039;-59
2022/05/12 03:10:51;;;;;;;3.65;1.85;;;;;;;17.13;48.52;101437.34;5132371;27;20039;-59
2022/05/12 03:13:18;;;;;;;6.18;1.90;;;;;;;17.11;48.60;101442.91;5133758;27;20518;-60
2022/05/12 03:15:44;;;;;;;4.15;2.33;;;;;;;17.08;48.44;101437.72;5134022;27;20035;-60
2022/05/12 03:18:11;;;;;;;4.97;2.58;;;;;;;17.07;48.70;101440.56;5134339;27;20047;-59
2022/05/12 03:20:38;;;;;;;4.38;1.92;;;;;;;17.04;48.50;101438.97;5134134;27;20039;-59
2022/05/12 03:23:04;;;;;;;5.47;2.20;;;;;;;17.03;48.59;101439.13;5133318;27;20039;-61
2022/05/12 03:25:31;;;;;;;4.57;2.10;;;;;;;17.01;48.55;101450.09;5134151;27;20036;-59
2022/05/12 03:27:59;;;;;;;4.90;2.35;;;;;;;16.99;48.60;101456.66;5133133;28;20099;-59
2022/05/12 03:30:26;;;;;;;4.68;2.53;;;;;;;16.97;48.82;101453.22;5134250;27;20043;-59
2022/05/12 03:32:53;;;;;;;7.38;2.42;;;;;;;16.92;48.79;101445.50;5133070;28;20047;-61
2022/05/12 03:35:20;;;;;;;8.02;2.45;;;;;;;16.88;48.66;101445.91;5121309;28;20503;-60
2022/05/12 03:37:46;;;;;;;6.63;2.17;;;;;;;16.84;49.06;101453.44;5132396;27;20076;-59
2022/05/12 03:40:14;;;;;;;8.95;2.67;;;;;;;16.80;48.83;101452.00;5132976;27;20508;-59
2022/05/12 03:42:42;;;;;;;8.85;2.65;;;;;;;16.78;49.12;101460.28;5134078;28;20095;-58
2022/05/12 03:45:09;;;;;;;3.53;2.30;;;;;;;16.76;49.07;101464.13;5133266;28;20035;-59
2022/05/12 03:47:39;;;;;;;5.20;2.65;;;;;;;16.75;49.44;101465.09;5126773;28;20442;-59
2022/05/12 03:50:09;;;;;;;5.95;2.60;;;;;;;16.74;49.18;101475.09;5131891;27;20042;-60
2022/05/12 03:52:42;;;;;;;7.25;2.83;;;;;;;16.74;49.19;101479.66;5134048;27;20501;-58
2022/05/12 03:55:11;;;;;;;6.78;2.80;;;;;;;16.73;49.42;101483.38;5130566;28;20054;-59
2022/05/12 03:57:39;;;;;;;7.13;2.95;;;;;;;16.72;49.30;101495.22;5132653;27;20039;-59
2022/05/12 04:00:07;;;;;;;3.80;2.60;;;;;;;16.71;49.71;101488.94;5132410;28;20062;-59
2022/05/12 04:02:37;;;;;;;8.27;3.05;;;;;;;16.71;49.68;101493.50;5130635;28;20400;-60
2022/05/12 04:05:05;;;;;;;6.47;2.80;;;;;;;16.72;49.68;101495.22;5125620;28;20039;-59
2022/05/12 04:07:33;;;;;;;7.88;2.95;;;;;;;16.73;49.82;101495.06;5129776;28;20043;-59
2022/05/12 04:10:01;;;;;;;7.00;2.75;;;;;;;16.74;49.68;101502.22;5132218;28;20106;-59
2022/05/12 04:12:27;;;;;;;5.95;3.05;;;;;;;16.74;49.37;101502.22;5117266;28;20042;-59
2022/05/12 04:14:54;;;;;;;6.60;2.97;;;;;;;16.73;49.36;101513.19;5133169;27;20039;-59
2022/05/12 04:17:20;;;;;;;7.10;3.38;;;;;;;16.72;49.46;101519.63;5114839;28;20044;-59
2022/05/12 04:19:50;;;;;;;11.00;4.13;;;;;;;16.72;49.94;101522.34;5132884;27;20481;-59
2022/05/12 04:22:17;;;;;;;7.88;3.78;;;;;;;16.72;49.78;101520.47;5118001;28;20150;-60
2022/05/12 04:24:43;;;;;;;9.60;3.58;;;;;;;16.71;50.04;101521.47;5133105;28;20481;-59
2022/05/12 04:27:10;;;;;;;8.35;4.60;;;;;;;16.70;50.24;101519.75;5133863;27;20088;-59
2022/05/12 04:29:38;;;;;;;10.25;4.93;;;;;;;16.69;50.00;101523.47;5126738;27;20042;-59
2022/05/12 04:32:05;;;;;;;15.68;5.78;;;;;;;16.67;50.28;101528.16;5124321;28;20451;-59
2022/05/12 04:37:16;;;;;;;14.70;6.60;;;;;;;16.65;50.36;101529.25;5132215;27;20424;-59
2022/05/12 04:39:43;;;;;;;12.65;5.43;;;;;;;16.65;50.45;101530.13;5134667;27;20050;-60
2022/05/12 04:42:09;;;;;;;13.55;6.43;;;;;;;16.67;50.91;101538.13;5136907;27;20050;-59
2022/05/12 04:44:36;;;;;;;16.38;6.82;;;;;;;16.68;50.89;101550.72;5136024;27;21479;-60
2022/05/12 04:47:03;;;;;;;18.08;6.57;;;;;;;16.69;51.11;101547.00;5122995;27;20080;-60
2022/05/12 04:49:29;;;;;;;16.08;8.10;;;;;;;16.69;51.06;101547.88;5136381;27;20043;-59
2022/05/12 04:51:57;;;;;;;15.55;7.90;;;;;;;16.71;51.18;101561.28;5136342;27;20050;-60
2022/05/12 04:54:24;;;;;;;19.85;8.38;;;;;;;16.73;51.60;101553.88;5135784;27;20130;-59
2022/05/12 04:56:51;;;;;;;20.13;8.23;;;;;;;16.75;51.70;101558.19;5135783;27;20050;-59
2022/05/12 04:59:18;;;;;;;18.52;8.18;;;;;;;16.78;51.59;101565.19;5136284;27;20039;-59
2022/05/12 05:01:44;;;;;;;17.30;9.18;;;;;;;16.81;51.50;101564.94;5136799;27;20039;-59
2022/05/12 05:04:11;;;;;;;22.40;9.65;;;;;;;16.81;52.02;101565.81;5135436;27;21282;-59
2022/05/12 05:06:37;;;;;;;14.57;9.27;;;;;;;16.84;51.89;101564.69;5136003;27;20392;-60
2022/05/12 05:09:05;;;;;;;21.25;8.80;;;;;;;16.86;51.93;101569.97;5127967;27;20032;-60
2022/05/12 05:11:38;;;;;;;19.02;9.20;;;;;;;16.89;51.92;101570.56;5102297;27;20043;-60
2022/05/12 05:14:04;;;;;;;22.83;11.75;;;;;;;16.91;52.34;101568.59;5135560;27;20500;-59
2022/05/12 05:16:31;;;;;;;23.58;10.70;;;;;;;16.95;52.53;101571.88;5123596;27;20374;-59
2022/05/12 05:18:58;;;;;;;25.17;11.02;;;;;;;16.98;52.66;101580.63;5118431;27;20035;-59
2022/05/12 05:21:24;;;;;;;23.10;11.75;;;;;;;17.00;52.56;101583.19;5123897;27;20031;-60
2022/05/12 05:23:51;;;;;;;22.80;11.70;;;;;;;17.00;53.03;101597.63;5122999;27;20508;-60
2022/05/12 05:26:18;;;;;;;21.95;12.02;;;;;;;17.01;52.80;101604.78;5128584;27;20043;-59
2022/05/12 05:28:45;;;;;;;20.50;11.20;;;;;;;17.02;53.04;101598.38;5135104;27;20108;-59
2022/05/12 05:31:11;;;;;;;22.67;11.52;;;;;;;17.07;52.98;101601.53;5133766;27;20039;-60
2022/05/12 05:33:38;;;;;;;23.70;12.05;;;;;;;17.09;53.29;101610.44;5132694;27;20043;-60
2022/05/12 05:36:05;;;;;;;29.63;13.00;;;;;;;17.11;53.44;101608.44;5135096;27;20039;-59
2022/05/12 05:38:32;;;;;;;22.35;12.48;;;;;;;17.14;53.34;101610.91;5117342;27;20035;-60
2022/05/12 05:40:58;;;;;;;28.05;13.95;;;;;;;17.17;53.24;101612.50;5129964;27;20076;-60
2022/05/12 05:43:26;;;;;;;29.17;13.85;;;;;;;17.21;53.74;101623.94;5133618;27;20039;-60
2022/05/12 05:45:53;;;;;;;26.52;14.32;;;;;;;17.24;53.59;101623.69;5115336;27;20047;-59
2022/05/12 05:48:20;;;;;;;28.15;13.27;;;;;;;17.27;53.74;101626.13;5135461;27;20071;-59
2022/05/12 05:53:38;;;;;;;29.02;15.38;;;;;;;17.38;54.34;101643.19;5128733;27;20035;-58
2022/05/12 05:56:08;;;;;;;25.10;14.38;;;;;;;17.44;54.07;101648.09;5133236;27;20043;-59
2022/05/12 05:58:35;;;;;;;29.10;14.25;;;;;;;17.50;54.27;101646.69;5132375;27;20035;-59
2022/05/12 06:01:01;;;;;;;28.20;14.15;;;;;;;17.56;54.52;101654.31;5132207;27;20092;-59
2022/05/12 06:03:28;;;;;;;23.90;13.63;;;;;;;17.62;54.43;101659.19;5132154;27;20037;-59
2022/05/12 06:05:55;;;;;;;25.02;13.93;;;;;;;17.68;54.32;101663.25;5135767;27;20054;-59
2022/05/12 06:08:22;;;;;;;25.75;14.70;;;;;;;17.73;54.53;101670.00;5133268;27;20049;-59
2022/05/12 06:10:58;;;;;;;24.42;13.95;;;;;;;17.76;54.50;101672.47;5135614;27;20049;-60
2022/05/12 06:13:25;;;;;;;26.33;14.02;;;;;;;17.81;54.50;101674.78;5135034;27;20046;-59
2022/05/12 06:15:51;;;;;;;26.70;13.85;;;;;;;17.89;54.67;101677.69;5135384;27;20035;-59
2022/05/12 06:18:18;;;;;;;26.15;14.07;;;;;;;18.00;54.44;101684.91;5135403;27;20047;-59
2022/05/12 06:20:47;;;;;;;26.58;14.18;;;;;;;18.09;54.63;101684.94;5116959;27;20049;-60
2022/05/12 06:23:15;;;;;;;19.77;13.40;;;;;;;18.20;54.35;101680.38;5135129;27;20043;-59
2022/05/12 06:25:41;;;;;;;20.45;12.73;;;;;;;18.28;54.53;101688.72;5135193;27;20042;-59
2022/05/12 06:28:08;;;;;;;23.05;13.02;;;;;;;18.40;54.58;101682.16;5134981;27;20054;-59
2022/05/12 06:30:37;;;;;;;20.17;11.52;;;;;;;18.51;54.55;101682.06;5134932;27;20039;-59
2022/05/12 06:33:04;;;;;;;18.75;10.88;;;;;;;18.59;54.35;101700.44;5116870;27;20130;-59
2022/05/12 06:35:31;;;;;;;22.52;11.20;;;;;;;18.65;54.09;101700.75;5135237;27;20130;-59
2022/05/12 06:37:58;;;;;;;18.65;11.98;;;;;;;18.71;53.84;101700.19;5133804;27;20054;-60
2022/05/12 06:40:25;;;;;;;22.75;11.82;;;;;;;18.83;53.67;101700.91;5132850;27;20039;-58
2022/05/12 06:42:52;;;;;;;20.58;11.57;;;;;;;18.99;53.80;101703.06;5131397;27;20421;-61
2022/05/12 06:45:20;;;;;;;21.17;12.00;;;;;;;19.17;53.84;101706.81;5133289;27;20049;-61
2022/05/12 06:47:50;;;;;;;25.02;11.63;;;;;;;19.35;53.62;101707.81;5133108;27;20047;-61
2022/05/12 06:50:20;;;;;;;17.83;10.02;;;;;;;19.55;53.35;101705.97;5133606;27;20043;-60
2022/05/12 06:52:47;;;;;;;21.70;11.45;;;;;;;19.80;52.87;101706.34;5134785;27;20047;-62
2022/05/12 06:55:14;;;;;;;15.82;10.13;;;;;;;20.04;52.79;101706.66;5134519;27;20039;-61
2022/05/12 06:57:42;;;;;;;17.42;9.65;;;;;;;20.26;52.10;101711.78;5133782;27;20051;-60
2022/05/12 07:00:10;;;;;;;18.88;10.13;;;;;;;20.42;51.56;101711.16;5134641;27;20122;-60
2022/05/12 07:02:38;;;;;;;16.17;9.68;;;;;;;20.56;51.54;101723.41;5134365;27;20074;-60
2022/05/12 07:05:08;;;;;;;14.77;8.48;;;;;;;20.63;51.08;101724.53;5133440;27;20400;-61
2022/05/12 07:07:35;;;;;;;12.63;8.25;;;;;;;20.66;50.54;101717.91;5132686;27;20039;-61
2022/05/12 07:10:04;;;;;;;17.10;7.80;;;;;;;20.67;49.92;101727.81;5134405;27;20032;-61
2022/05/12 07:12:31;;;;;;;16.15;7.43;;;;;;;20.70;50.04;101719.31;5134299;27;20059;-61
2022/05/12 07:14:58;;;;;;;12.35;7.70;;;;;;;20.75;49.63;101717.84;5134103;27;20489;-61
2022/05/12 07:17:25;;;;;;;13.30;7.80;;;;;;;20.88;49.79;101721.09;5134339;27;20054;-61
2022/05/12 07:26:34;;;;;;;13.63;7.38;;;;;;;21.00;49.25;101724.44;5134096;27;20039;-61
2022/05/12 07:28:09;;;;;;;18.08;8.63;;;;;;;21.18;48.54;101733.50;5134501;27;20039;-61
2022/05/12 07:31:00;;;;;;;18.25;8.25;;;;;;;21.17;48.22;101733.66;5133619;28;20043;-61
2022/05/12 07:33:22;;;;;;;13.48;7.70;;;;;;;21.16;47.93;101740.13;5133690;28;20047;-60
2022/05/12 07:35:48;;;;;;;14.00;7.43;;;;;;;21.16;47.73;101741.00;5134088;28;20039;-60
2022/05/12 07:38:16;;;;;;;12.32;7.57;;;;;;;21.17;47.90;101739.97;5133968;28;20039;-60
2022/05/12 07:40:42;;;;;;;14.35;8.00;;;;;;;21.22;47.82;101742.22;5134370;28;20042;-61
2022/05/12 07:43:09;;;;;;;12.70;6.70;;;;;;;21.26;47.35;101749.13;5138965;28;20047;-60
2022/05/12 07:45:36;;;;;;;15.85;6.97;;;;;;;21.28;47.46;101749.84;5135790;28;20043;-60
2022/05/12 07:48:02;;;;;;;14.32;7.05;;;;;;;21.32;46.77;101755.84;5134087;28;20045;-61
2022/05/12 07:50:29;;;;;;;12.82;7.15;;;;;;;21.36;46.61;101746.31;5133835;28;20564;-62
2022/05/12 07:52:55;;;;;;;8.00;5.57;;;;;;;21.49;46.77;101747.63;5134292;28;20031;-62
2022/05/12 07:55:22;;;;;;;13.30;7.20;;;;;;;21.65;46.17;101751.53;5133834;28;20048;-61
2022/05/12 07:57:50;;;;;;;11.68;7.68;;;;;;;21.80;46.49;101750.81;5134281;28;20048;-61
2022/05/12 08:00:17;;;;;;;11.38;6.53;;;;;;;21.91;45.84;101757.03;5133513;28;20564;-61
2022/05/12 08:02:44;;;;;;;8.93;5.70;;;;;;;21.93;45.76;101755.84;5115890;28;20050;-60
2022/05/12 08:05:10;;;;;;;11.82;5.93;;;;;;;22.02;45.31;101757.63;5133553;28;20046;-62
2022/05/12 08:07:38;;;;;;;9.48;5.68;;;;;;;22.17;45.01;101755.16;5133669;27;20062;-61
2022/05/12 08:10:05;;;;;;;12.85;5.63;;;;;;;22.36;44.96;101767.78;5137867;27;20370;-61
2022/05/12 08:12:32;;;;;;;12.25;6.85;;;;;;;22.63;44.63;101770.28;5119765;27;20076;-61
2022/05/12 08:14:58;;;;;;;15.65;7.78;;;;;;;22.94;44.51;101769.75;5137413;27;20492;-61
2022/05/12 08:17:25;;;;;;;10.18;6.70;;;;;;;23.15;44.28;101770.16;5137623;27;20121;-61
2022/05/12 08:19:52;;;;;;;8.88;5.53;;;;;;;23.23;43.33;101764.69;5137416;27;20549;-61
2022/05/12 08:22:18;;;;;;;11.23;5.22;;;;;;;23.23;43.13;101763.84;5137715;27;20035;-64
2022/05/12 08:24:45;;;;;;;9.77;6.07;;;;;;;23.29;42.71;101772.25;5137506;27;20039;-63
2022/05/12 08:27:13;;;;;;;10.98;6.00;;;;;;;23.38;42.54;101773.09;5137364;27;20039;-63
2022/05/12 08:29:41;;;;;;;9.18;5.78;;;;;;;23.52;42.14;101766.94;5137177;27;20069;-63
2022/05/12 08:32:07;;;;;;;11.02;6.57;;;;;;;23.75;42.51;101769.88;5137435;27;20404;-62
2022/05/12 08:34:34;;;;;;;9.70;6.22;;;;;;;23.94;42.08;101766.78;5136953;27;20557;-64
2022/05/12 08:37:01;;;;;;;7.85;5.40;;;;;;;24.14;41.62;101771.91;5137239;27;20516;-64
2022/05/12 08:39:33;;;;;;;8.63;5.80;;;;;;;24.35;41.15;101766.72;5137163;27;20511;-64
2022/05/12 08:42:08;;;;;;;12.00;5.82;;;;;;;24.55;40.86;101759.81;5137297;27;20049;-63
2022/05/12 08:44:38;;;;;;;;;;;;;;;24.76;41.25;101769.31;5137756;27;20043;-63
2022/05/12 08:47:10;;;;;;;8.80;4.80;;;;;;;24.96;40.63;101773.34;5137432;27;19923;-62
2022/05/12 08:49:44;;;;;;;7.57;5.55;;;;;;;24.93;39.39;101770.94;5136785;27;20403;-61
2022/05/12 08:52:23;;;;;;;9.02;5.82;;;;;;;24.69;39.07;101760.94;5137269;27;20047;-62
2022/05/12 08:54:53;;;;;;;10.27;5.25;;;;;;;24.56;38.92;101769.75;5136892;27;20043;-61
2022/05/12 08:57:33;;;;;;;7.50;4.47;;;;;;;24.48;38.73;101778.00;5136963;27;20039;-62
2022/05/12 09:00:05;;;;;;;7.18;4.50;;;;;;;24.47;38.26;101779.03;5136810;27;20043;-62
2022/05/12 09:02:57;;;;;;;5.45;3.60;;;;;;;24.47;37.80;101776.28;5136791;27;20480;-62
2022/05/12 09:05:35;;;;;;;6.32;4.22;;;;;;;24.56;37.62;101767.00;5136588;27;20035;-62
2022/05/12 09:08:21;;;;;;;8.43;4.15;;;;;;;24.63;37.46;101781.75;5136877;27;20043;-62
2022/05/12 09:11:14;;;;;;;7.65;4.63;;;;;;;24.79;37.22;101775.31;5136421;27;20035;-62
2022/05/12 09:13:46;;;;;;;5.63;3.40;;;;;;;25.02;37.12;101773.50;5136361;27;20428;-62
2022/05/12 09:16:28;;;;;;;9.30;4.70;;;;;;;25.17;37.02;101776.31;5136505;27;20043;-62
2022/05/12 09:18:55;;;;;;;6.28;4.20;;;;;;;25.30;36.48;101782.09;5136226;27;20122;-62
2022/05/12 09:21:25;;;;;;;7.72;3.40;;;;;;;25.42;36.06;101790.78;5136173;27;20051;-61
2022/05/12 09:23:53;;;;;;;6.90;3.10;;;;;;;25.55;35.97;101784.66;5136424;27;20035;-62
2022/05/12 09:26:41;;;;;;;4.25;2.95;;;;;;;25.73;35.63;101781.63;5136222;27;20400;-62
2022/05/12 09:29:12;;;;;;;6.57;3.38;;;;;;;25.92;35.33;101781.94;5118543;27;20455;-62
2022/05/12 09:31:42;;;;;;;4.22;2.85;;;;;;;26.01;35.12;101782.75;5136382;27;20050;-62
2022/05/12 09:34:21;;;;;;;5.22;2.78;;;;;;;26.03;33.96;101785.31;5135969;27;20035;-62
2022/05/12 09:36:48;;;;;;;5.22;3.53;;;;;;;25.86;33.72;101777.19;5136087;27;20537;-62
2022/05/12 09:39:41;;;;;;;4.28;2.72;;;;;;;25.59;33.22;101783.25;5136048;27;20045;-61
2022/05/12 09:42:33;;;;;;;3.67;2.28;;;;;;;25.43;33.07;101772.38;5135831;27;20050;-61
2022/05/12 09:45:05;;;;;;;4.70;2.47;;;;;;;25.28;33.27;101778.69;5135642;27;20039;-62
2022/05/12 09:47:33;;;;;;;8.07;3.53;;;;;;;25.32;33.23;101771.78;5136063;27;20047;-63
2022/05/12 09:50:25;;;;;;;4.68;2.90;;;;;;;25.44;33.28;101772.19;5135918;27;20047;-63
2022/05/12 09:52:54;;;;;;;4.55;2.05;;;;;;;25.65;33.26;101766.00;5135718;27;20054;-62
2022/05/12 09:55:31;;;;;;;4.20;2.03;;;;;;;25.77;32.66;101767.31;5135722;27;20047;-62
2022/05/12 09:58:01;;;;;;;8.55;2.15;;;;;;;25.84;31.85;101770.16;5135869;27;20039;-64
2022/05/12 10:00:30;;;;;;;5.53;2.28;;;;;;;25.79;31.83;101762.47;5133237;27;20047;-60
2022/05/12 10:09:08;;;;;;;5.07;1.95;;;;;;;25.99;31.38;101757.28;5135851;27;20046;-59
2022/05/12 10:12:14;;;;;;;4.88;2.08;;;;;;;26.17;31.23;101762.44;5135502;27;20039;-59
2022/05/12 10:14:48;;;;;;;5.32;2.10;;;;;;;26.30;31.23;101765.41;5106300;27;20062;-59
2022/05/12 10:17:41;;;;;;;5.25;2.88;;;;;;;26.28;30.89;101765.59;5135440;27;20577;-59
2022/05/12 10:20:18;;;;;;;6.85;1.77;;;;;;;26.15;30.72;101772.81;5135432;27;20481;-59
2022/05/12 10:22:55;;;;;;;5.15;1.75;;;;;;;25.97;30.48;101764.88;5135273;27;20454;-59
2022/05/12 10:25:47;;;;;;;2.58;1.38;;;;;;;25.83;30.28;101761.06;5134061;27;20050;-59
2022/05/12 10:28:27;;;;;;;5.85;2.00;;;;;;;25.72;30.15;101768.91;5135152;27;20553;-60
2022/05/12 10:30:56;;;;;;;3.17;1.80;;;;;;;25.60;30.52;101763.81;5134753;27;20050;-60
2022/05/12 10:33:38;;;;;;;4.28;2.10;;;;;;;25.56;30.18;101767.13;5134935;27;20043;-60
2022/05/12 10:36:23;;;;;;;3.63;1.70;;;;;;;25.53;30.42;101768.34;5135151;27;20046;-60
2022/05/12 10:39:02;;;;;;;2.97;1.70;;;;;;;25.53;30.15;101773.00;5135346;27;20050;-61
2022/05/12 10:41:36;;;;;;;3.95;1.50;;;;;;;25.52;29.91;101765.78;5135389;27;20114;-59
2022/05/12 10:44:16;;;;;;;5.28;2.30;;;;;;;25.59;29.94;101762.09;5135158;27;20040;-60
2022/05/12 10:47:04;;;;;;;5.22;1.60;;;;;;;25.73;29.80;101760.47;5134951;27;20035;-60
2022/05/12 10:49:41;;;;;;;8.20;2.50;;;;;;;25.96;30.06;101763.16;5134103;27;20047;-60
2022/05/12 10:52:24;;;;;;;3.40;1.92;;;;;;;26.16;29.93;101769.00;5134878;27;20062;-59
2022/05/12 10:55:27;;;;;;;5.93;2.45;;;;;;;26.22;29.58;101763.59;5133414;27;20055;-60
2022/05/12 10:58:29;;;;;;;3.38;2.30;;;;;;;26.09;29.32;101765.28;5134870;27;20035;-60
2022/05/12 11:01:19;;;;;;;4.82;2.30;;;;;;;25.89;29.67;101752.03;5133612;27;20046;-59
2022/05/12 11:04:00;;;;;;;4.32;2.10;;;;;;;25.71;29.48;101754.28;5134326;27;20488;-59
2022/05/12 11:06:39;;;;;;;4.82;2.25;;;;;;;25.62;29.23;101766.38;5134757;27;20378;-59
2022/05/12 11:09:13;;;;;;;7.10;1.90;;;;;;;25.64;29.56;101758.78;5134835;27;20043;-59
2022/05/12 11:11:45;;;;;;;4.68;2.17;;;;;;;25.70;29.44;101755.34;5134494;27;20039;-59
2022/05/12 11:14:33;;;;;;;4.30;2.10;;;;;;;25.65;29.26;101752.25;5134572;27;20039;-59
2022/05/12 11:17:08;;;;;;;5.60;2.42;;;;;;;25.66;29.16;101748.50;5134650;27;20043;-60
2022/05/12 11:19:37;;;;;;;6.18;2.63;;;;;;;25.60;28.94;101751.97;5134619;27;20058;-60
2022/05/12 11:22:21;;;;;;;2.78;1.88;;;;;;;25.44;29.27;101743.84;5134157;27;20035;-59
2022/05/12 11:25:01;;;;;;;6.15;2.35;;;;;;;25.32;29.42;101743.44;5134126;27;20047;-59
2022/05/12 11:31:04;;;;;;;5.20;1.98;;;;;;;25.15;29.51;101739.91;5134258;28;20039;-59
2022/05/12 11:33:38;;;;;;;3.17;2.38;;;;;;;25.21;29.32;101741.06;5133862;28;20524;-59
2022/05/12 11:36:08;;;;;;;5.28;2.10;;;;;;;25.26;29.32;101746.88;5134249;28;20047;-59
2022/05/12 11:38:39;;;;;;;5.88;1.60;;;;;;;25.43;29.45;101740.25;5134084;28;20559;-59
2022/05/12 11:41:08;;;;;;;5.07;2.05;;;;;;;25.63;29.30;101746.09;5134166;28;20039;-59
2022/05/12 11:46:53;;;;;;;5.22;2.20;;;;;;;25.90;28.80;101741.88;5138436;27;20039;-60
2022/05/12 11:49:36;;;;;;;3.38;3.00;;;;;;;25.97;28.63;101737.34;5138243;27;20047;-60
2022/05/12 11:52:19;;;;;;;4.90;2.45;;;;;;;26.08;28.62;101731.41;5138723;27;20377;-60
2022/05/12 11:54:59;;;;;;;6.93;2.47;;;;;;;26.23;28.58;101726.75;5138074;27;20047;-59
2022/05/12 11:57:31;;;;;;;3.38;1.95;;;;;;;26.35;28.65;101724.41;5138365;27;20039;-59
2022/05/12 12:00:00;;;;;;;4.97;2.30;;;;;;;26.47;28.19;101733.03;5123544;27;20031;-59